Arneckeville, Texas
Current Conditions -  °F | °C
As of 12:51 AM on Wednesday 22 Oct 2014 (Local Time) from KVCT Reporting Station
Clear Clear  
Wind Chill: 62°   Ceiling: Unl
Heat Index: 62°   Visibility: 10mi
Dew Point: 54°   Wind: 8mph
Humidity: 75%   Direction: 70°ENE
Pressure: 30.02"   Gusts: NA
Location:  29.0941°N, 97.191°W
Report Text: KVCT 220551Z AUTO 07007KT 10SM CLR 17/12 A3002 RMK AO2 SLP164 T01670122 10244 20150 403110150 58003
Loading
Personal Weather Stations






























Interactive Weather Map
Tropical Storm Tracking
New forecast layout! Learn more

10-Day Weather Forecast

Advertisements
Track Severe Weather on mobile